Terminal Aerodrome Forecast
Issued by NWS Wilmington, NC

Home | Current Version | Previous Version | Text Only | Print | Product List | Glossary On
Versions: 1 2 3 4 5 6 7 8 9 10 11 12 13 14 15
000
FTUS42 KILM 291300 AAA
TAFMYR
TAF AMD
KMYR 291328Z 2913/3012 17006KT 3SM BR SCT002 BKN035
     FM291900 33005KT 4SM -RA BR BKN005 OVC012
     FM292100 35007KT 6SM BR VCSH OVC007
     FM300100 02006KT 3SM -DZ BR OVC004=

USA.gov is the U.S. government's official web portal to all federal, state and local government web resources and services.